Time;durP1;ratioP1;P1;durP2;ratioP2;P2;SDS_P1;SDS_P2;PMS_P1;PMS_P2;Temp;Humidity;BMP_temperature;BMP_pressure;BME280_temperature;BME280_humidity;BME280_pressure;Samples;Min_cycle;Max_cycle;Signal;HPM_P1;HPM_P2
2022/03/08 00:02:24;;;;;;;0.00;0.00;;;2.30;60.40;;;;;;4085118;28;20106;-72
2022/03/08 00:04:48;;;;;;;0.00;0.00;;;2.40;60.00;;;;;;4100070;29;20051;-74
2022/03/08 00:07:10;;;;;;;0.00;0.00;;;2.50;59.80;;;;;;4073614;29;20135;-73
2022/03/08 00:09:32;;;;;;;0.00;0.00;;;2.50;59.90;;;;;;4086550;29;20048;-71
2022/03/08 00:11:57;;;;;;;0.00;0.00;;;2.60;59.60;;;;;;4086561;29;20051;-72
2022/03/08 00:14:19;;;;;;;0.00;0.00;;;2.70;59.40;;;;;;4072592;28;20072;-74
2022/03/08 00:16:41;;;;;;;0.00;0.00;;;2.70;59.40;;;;;;4091474;28;20401;-73
2022/03/08 00:19:05;;;;;;;0.00;0.00;;;2.70;59.20;;;;;;4102115;28;20047;-72
2022/03/08 00:21:29;;;;;;;0.00;0.00;;;2.80;59.20;;;;;;4089630;28;20049;-73
2022/03/08 00:23:55;;;;;;;0.00;0.00;;;2.70;59.10;;;;;;4102211;28;20051;-70
2022/03/08 00:26:20;;;;;;;0.00;0.00;;;2.70;59.20;;;;;;4087613;28;20381;-74
2022/03/08 00:28:42;;;;;;;0.00;0.00;;;2.60;59.30;;;;;;4073206;29;20104;-71
2022/03/08 00:31:04;;;;;;;0.00;0.00;;;2.60;59.40;;;;;;4086264;29;20110;-73
2022/03/08 00:33:28;;;;;;;0.00;0.00;;;2.60;59.30;;;;;;4099461;29;20435;-72
2022/03/08 00:35:50;;;;;;;0.00;0.00;;;2.60;59.20;;;;;;4099786;29;20505;-74
2022/03/08 00:38:15;;;;;;;0.00;0.00;;;2.60;58.90;;;;;;4099036;29;20059;-71
2022/03/08 00:40:39;;;;;;;0.00;0.00;;;2.70;58.80;;;;;;4090514;28;20047;-74
2022/03/08 00:43:03;;;;;;;0.00;0.00;;;2.50;58.90;;;;;;4086230;29;20139;-70
2022/03/08 00:45:27;;;;;;;0.00;0.00;;;2.20;59.60;;;;;;4085913;29;20055;-73
2022/03/08 00:47:51;;;;;;;0.00;0.00;;;2.20;59.80;;;;;;4073009;29;20056;-72
2022/03/08 00:50:20;;;;;;;0.00;0.00;;;2.30;59.40;;;;;;4101452;28;20059;-76
2022/03/08 00:52:42;;;;;;;0.00;0.00;;;2.30;59.40;;;;;;4115272;28;20050;-73
2022/03/08 00:55:06;;;;;;;0.00;0.00;;;2.20;59.70;;;;;;4085919;29;20056;-73
2022/03/08 00:57:30;;;;;;;0.00;0.00;;;2.00;60.10;;;;;;4099141;29;20506;-76
2022/03/08 00:59:52;;;;;;;0.00;0.00;;;2.10;60.00;;;;;;4099230;29;20069;-75
2022/03/08 01:02:17;;;;;;;0.00;0.00;;;2.20;59.70;;;;;;4101536;28;20055;-73
2022/03/08 01:04:42;;;;;;;0.00;0.00;;;2.10;59.60;;;;;;4102077;28;20073;-73
2022/03/08 01:07:07;;;;;;;0.00;0.00;;;2.00;59.80;;;;;;4088571;28;20048;-73
2022/03/08 01:09:33;;;;;;;0.00;0.00;;;2.10;60.00;;;;;;4101805;28;20047;-75
2022/03/08 01:12:00;;;;;;;0.00;0.00;;;2.20;59.80;;;;;;4099419;28;20055;-76
2022/03/08 01:14:23;;;;;;;0.00;0.00;;;2.20;59.50;;;;;;4101178;28;20077;-71
2022/03/08 01:16:49;;;;;;;0.00;0.00;;;2.30;59.40;;;;;;4102200;29;20440;-73
2022/03/08 01:19:15;;;;;;;0.00;0.00;;;2.20;59.50;;;;;;4102263;29;20113;-73
2022/03/08 01:21:50;;;;;;;0.00;0.00;;;2.20;59.40;;;;;;4090146;29;20435;-70
2022/03/08 01:24:21;;;;;;;0.00;0.00;;;2.20;59.20;;;;;;4118498;28;20413;-70
2022/03/08 01:26:48;;;;;;;0.00;0.00;;;2.20;59.30;;;;;;4105018;28;20055;-72
2022/03/08 01:29:12;;;;;;;0.00;0.00;;;2.20;59.40;;;;;;4102066;29;20089;-72
2022/03/08 01:31:41;;;;;;;0.00;0.00;;;2.10;59.30;;;;;;4075719;29;20539;-74
2022/03/08 01:34:05;;;;;;;0.00;0.00;;;2.10;59.30;;;;;;4088619;29;20054;-74
2022/03/08 01:36:29;;;;;;;0.00;0.00;;;2.00;59.70;;;;;;4103998;28;20071;-72
2022/03/08 01:39:00;;;;;;;0.00;0.00;;;1.80;60.30;;;;;;4117782;28;20101;-73
2022/03/08 01:41:28;;;;;;;0.00;0.00;;;1.70;60.60;;;;;;4091133;28;20052;-73
2022/03/08 01:43:53;;;;;;;0.00;0.00;;;1.50;61.30;;;;;;4088692;29;20043;-72
2022/03/08 01:46:16;;;;;;;0.00;0.00;;;1.20;62.20;;;;;;4103955;28;20051;-72
2022/03/08 01:48:42;;;;;;;0.00;0.00;;;1.30;62.20;;;;;;4117559;28;20051;-74
2022/03/08 01:51:11;;;;;;;0.00;0.00;;;1.60;61.60;;;;;;4117999;28;20101;-72
2022/03/08 01:53:46;;;;;;;0.00;0.00;;;1.70;60.90;;;;;;4092765;28;20433;-73
2022/03/08 01:56:24;;;;;;;0.00;0.00;;;1.90;60.50;;;;;;4117922;28;20054;-72
2022/03/08 01:58:49;;;;;;;0.00;0.00;;;1.90;60.20;;;;;;4104146;28;20043;-75
2022/03/08 02:01:23;;;;;;;0.00;0.00;;;1.90;60.10;;;;;;4088489;29;20103;-72
2022/03/08 02:03:56;;;;;;;0.00;0.00;;;1.70;60.30;;;;;;4088200;29;20493;-74
2022/03/08 02:06:33;;;;;;;0.00;0.00;;;1.70;60.50;;;;;;4105410;28;20133;-71
2022/03/08 02:09:05;;;;;;;0.00;0.00;;;1.70;60.30;;;;;;4118192;28;20051;-71
2022/03/08 02:11:38;;;;;;;0.00;0.00;;;1.80;60.00;;;;;;4118229;28;20054;-72
2022/03/08 02:14:16;;;;;;;0.00;0.00;;;1.90;59.90;;;;;;4117523;28;20050;-71
2022/03/08 02:16:42;;;;;;;0.00;0.00;;;1.90;59.90;;;;;;4118085;28;20069;-72
2022/03/08 02:19:11;;;;;;;0.00;0.00;;;2.00;59.70;;;;;;4103934;28;20059;-73
2022/03/08 02:21:36;;;;;;;0.00;0.00;;;1.70;60.10;;;;;;4088019;29;20091;-72
2022/03/08 02:23:58;;;;;;;0.00;0.00;;;1.70;60.40;;;;;;4074776;29;20440;-70
2022/03/08 02:26:21;;;;;;;0.00;0.00;;;1.70;60.30;;;;;;4099772;28;20047;-71
2022/03/08 02:28:44;;;;;;;0.00;0.00;;;1.70;60.40;;;;;;4101146;29;20128;-73
2022/03/08 02:31:06;;;;;;;0.00;0.00;;;1.70;60.40;;;;;;4074655;29;20080;-71
2022/03/08 02:33:28;;;;;;;0.00;0.00;;;1.80;60.20;;;;;;4101200;29;20051;-72
2022/03/08 02:35:50;;;;;;;0.00;0.00;;;1.80;60.20;;;;;;4101264;29;20074;-75
2022/03/08 02:38:12;;;;;;;0.00;0.00;;;1.80;60.20;;;;;;4102179;28;20047;-71
2022/03/08 02:40:39;;;;;;;0.00;0.00;;;1.70;60.40;;;;;;4105293;28;20381;-74
2022/03/08 02:43:04;;;;;;;0.00;0.00;;;1.70;60.60;;;;;;4103658;28;20051;-73
2022/03/08 02:45:29;;;;;;;0.00;0.00;;;1.60;60.80;;;;;;4116707;28;20102;-75
2022/03/08 02:47:51;;;;;;;0.00;0.00;;;1.60;60.90;;;;;;4103476;28;20094;-73
2022/03/08 02:50:15;;;;;;;0.00;0.00;;;1.60;60.90;;;;;;4102815;28;20051;-72
2022/03/08 02:52:42;;;;;;;0.00;0.00;;;1.60;61.00;;;;;;4116997;28;20505;-74
2022/03/08 02:55:04;;;;;;;0.00;0.00;;;1.60;61.00;;;;;;4103234;28;20047;-72
2022/03/08 02:57:27;;;;;;;0.00;0.00;;;1.50;61.10;;;;;;4103302;28;20050;-72
2022/03/08 02:59:53;;;;;;;0.00;0.00;;;1.50;61.20;;;;;;4089853;28;20110;-72
2022/03/08 03:02:18;;;;;;;0.00;0.00;;;1.40;61.20;;;;;;4116453;28;20051;-73
2022/03/08 03:04:40;;;;;;;0.00;0.00;;;1.40;61.30;;;;;;4103300;28;20122;-73
2022/03/08 03:07:02;;;;;;;0.00;0.00;;;1.20;61.80;;;;;;4103705;28;20102;-70
2022/03/08 03:09:27;;;;;;;0.00;0.00;;;1.10;62.40;;;;;;4090159;28;20055;-72
2022/03/08 03:11:51;;;;;;;0.00;0.00;;;1.00;62.50;;;;;;4117004;28;20055;-72
2022/03/08 03:14:16;;;;;;;0.00;0.00;;;1.10;62.30;;;;;;4116039;28;20047;-72
2022/03/08 03:16:41;;;;;;;0.00;0.00;;;1.00;62.60;;;;;;4061361;29;20052;-75
2022/03/08 03:19:04;;;;;;;0.00;0.00;;;1.00;62.50;;;;;;4074255;29;20048;-74
2022/03/08 03:21:26;;;;;;;0.00;0.00;;;1.10;62.20;;;;;;4087361;29;20418;-73
2022/03/08 03:23:49;;;;;;;0.00;0.00;;;1.20;62.20;;;;;;4087975;29;20051;-70
2022/03/08 03:26:13;;;;;;;0.00;0.00;;;1.10;62.50;;;;;;4087101;29;20051;-71
2022/03/08 03:28:35;;;;;;;0.00;0.00;;;1.00;63.00;;;;;;4100878;29;20151;-72
2022/03/08 03:30:59;;;;;;;0.00;0.00;;;1.00;62.90;;;;;;4081556;28;20382;-73
2022/03/08 03:33:29;;;;;;;0.00;0.00;;;1.00;62.90;;;;;;4089590;28;20043;-74
2022/03/08 03:35:51;;;;;;;0.00;0.00;;;0.80;63.50;;;;;;4087010;29;20052;-74
2022/03/08 03:38:15;;;;;;;0.00;0.00;;;0.80;63.70;;;;;;4099713;29;20474;-76
2022/03/08 03:40:37;;;;;;;0.00;0.00;;;0.80;63.50;;;;;;4086612;29;20427;-74
2022/03/08 03:43:01;;;;;;;0.00;0.00;;;0.90;63.40;;;;;;4094172;28;20082;-71
2022/03/08 03:45:26;;;;;;;0.00;0.00;;;0.90;63.20;;;;;;4103156;28;20047;-71
2022/03/08 03:47:50;;;;;;;0.00;0.00;;;1.00;62.90;;;;;;4073807;29;20056;-72
2022/03/08 03:50:17;;;;;;;0.00;0.00;;;1.00;62.90;;;;;;4071827;29;20056;-70
2022/03/08 03:52:40;;;;;;;0.00;0.00;;;1.00;63.00;;;;;;4073543;29;20055;-74
2022/03/08 03:55:06;;;;;;;0.00;0.00;;;1.00;62.60;;;;;;4087016;29;20048;-72
2022/03/08 03:57:31;;;;;;;0.00;0.00;;;1.00;62.60;;;;;;4073283;29;20496;-70
2022/03/08 03:59:55;;;;;;;0.00;0.00;;;1.10;62.40;;;;;;4086439;29;20071;-70
2022/03/08 04:02:19;;;;;;;0.00;0.00;;;1.30;62.10;;;;;;4085863;28;20111;-73
2022/03/08 04:04:42;;;;;;;0.00;0.00;;;1.30;61.80;;;;;;4100080;28;20051;-71
2022/03/08 04:07:04;;;;;;;0.00;0.00;;;1.20;61.50;;;;;;4073230;29;20051;-72
2022/03/08 04:09:26;;;;;;;0.00;0.00;;;1.10;62.00;;;;;;4086274;29;20097;-73
2022/03/08 04:11:50;;;;;;;0.00;0.00;;;1.10;62.30;;;;;;4086521;29;20047;-73
2022/03/08 04:14:15;;;;;;;0.00;0.00;;;1.00;62.30;;;;;;4099239;28;20462;-70
2022/03/08 04:16:40;;;;;;;0.00;0.00;;;0.90;62.50;;;;;;4099823;28;20043;-73
2022/03/08 04:19:02;;;;;;;0.00;0.00;;;0.90;62.70;;;;;;4073126;29;20079;-73
2022/03/08 04:21:24;;;;;;;0.00;0.00;;;0.70;63.00;;;;;;4099765;28;20553;-71
2022/03/08 04:23:47;;;;;;;0.00;0.00;;;0.70;63.00;;;;;;4073167;29;20055;-71
2022/03/08 04:26:14;;;;;;;0.00;0.00;;;0.70;63.00;;;;;;4083213;29;20058;-72
2022/03/08 04:28:38;;;;;;;0.00;0.00;;;0.70;63.10;;;;;;4070316;29;20053;-70
2022/03/08 04:31:03;;;;;;;0.00;0.00;;;0.80;62.70;;;;;;4070678;29;20182;-72
2022/03/08 04:33:30;;;;;;;0.00;0.00;;;1.00;62.40;;;;;;4083655;29;20056;-74
2022/03/08 04:35:56;;;;;;;0.00;0.00;;;1.00;62.20;;;;;;4070516;29;20144;-73
2022/03/08 04:38:21;;;;;;;0.00;0.00;;;0.90;62.20;;;;;;4083241;29;20059;-74
2022/03/08 04:40:47;;;;;;;0.00;0.00;;;0.90;62.30;;;;;;4083759;29;20052;-72
2022/03/08 04:43:12;;;;;;;0.00;0.00;;;0.90;62.30;;;;;;4083644;29;20135;-71
2022/03/08 04:45:34;;;;;;;0.00;0.00;;;0.90;62.20;;;;;;4071590;29;20451;-72
2022/03/08 04:47:58;;;;;;;0.00;0.00;;;0.90;62.30;;;;;;4114541;28;20050;-74
2022/03/08 04:50:23;;;;;;;0.00;0.00;;;0.90;62.40;;;;;;4104878;28;20098;-71
2022/03/08 04:52:48;;;;;;;0.00;0.00;;;0.70;62.50;;;;;;4105474;28;20055;-71
2022/03/08 04:55:15;;;;;;;0.00;0.00;;;0.80;62.60;;;;;;4105372;28;20051;-72
2022/03/08 04:57:41;;;;;;;0.00;0.00;;;0.80;62.60;;;;;;4118961;28;20058;-72
2022/03/08 05:00:06;;;;;;;0.00;0.00;;;0.80;62.50;;;;;;4105568;28;20098;-73
2022/03/08 05:02:28;;;;;;;0.00;0.00;;;0.70;62.80;;;;;;4081430;28;20047;-73
2022/03/08 05:04:50;;;;;;;0.00;0.00;;;0.70;62.70;;;;;;4095471;28;20055;-71
2022/03/08 05:07:15;;;;;;;0.00;0.00;;;0.70;62.80;;;;;;4102666;29;20062;-72
2022/03/08 05:09:40;;;;;;;0.00;0.00;;;0.80;62.80;;;;;;4089652;29;20062;-76
2022/03/08 05:12:05;;;;;;;0.00;0.00;;;0.80;62.70;;;;;;4102993;29;20497;-71
2022/03/08 05:14:27;;;;;;;0.00;0.00;;;0.80;62.70;;;;;;4118466;28;20150;-73
2022/03/08 05:16:49;;;;;;;0.00;0.00;;;0.70;62.80;;;;;;4105079;28;20386;-72
2022/03/08 05:19:14;;;;;;;0.00;0.00;;;0.70;62.80;;;;;;4118691;28;20086;-73
2022/03/08 05:21:36;;;;;;;0.00;0.00;;;0.70;62.90;;;;;;4105409;28;20086;-73
2022/03/08 05:23:58;;;;;;;0.00;0.00;;;0.60;63.20;;;;;;4105314;28;20047;-72
2022/03/08 05:26:23;;;;;;;0.00;0.00;;;0.70;63.20;;;;;;4065012;28;20056;-73
2022/03/08 05:28:46;;;;;;;0.00;0.00;;;0.70;63.20;;;;;;4105197;28;20083;-73
2022/03/08 05:31:10;;;;;;;0.00;0.00;;;0.70;63.30;;;;;;4104995;28;20063;-75
2022/03/08 05:33:35;;;;;;;0.00;0.00;;;0.60;63.40;;;;;;4105021;28;20047;-72
2022/03/08 05:35:59;;;;;;;0.00;0.00;;;0.60;63.60;;;;;;4104918;28;20351;-71
2022/03/08 05:38:21;;;;;;;0.00;0.00;;;0.60;63.60;;;;;;4104518;28;20082;-73
2022/03/08 05:40:44;;;;;;;0.00;0.00;;;0.60;63.90;;;;;;4105262;28;20054;-75
2022/03/08 05:43:06;;;;;;;0.00;0.00;;;0.40;64.00;;;;;;4104828;28;20051;-73
2022/03/08 05:45:29;;;;;;;0.00;0.00;;;0.50;64.10;;;;;;4104408;28;20043;-71
2022/03/08 05:47:53;;;;;;;0.00;0.00;;;0.50;64.20;;;;;;4104588;28;20047;-73
2022/03/08 05:50:16;;;;;;;0.00;0.00;;;0.40;64.10;;;;;;4091101;28;20078;-72
2022/03/08 05:52:38;;;;;;;0.00;0.00;;;0.50;64.20;;;;;;4091580;28;20039;-74
2022/03/08 05:55:02;;;;;;;0.00;0.00;;;0.60;64.00;;;;;;4078255;28;20047;-73
2022/03/08 05:57:26;;;;;;;0.00;0.00;;;0.60;63.90;;;;;;4104811;28;20062;-73
2022/03/08 05:59:49;;;;;;;0.00;0.00;;;0.60;64.00;;;;;;4104494;28;20416;-71
2022/03/08 06:02:14;;;;;;;0.00;0.00;;;0.70;63.90;;;;;;4077634;28;20403;-72
2022/03/08 06:04:40;;;;;;;0.00;0.00;;;0.70;63.70;;;;;;4117776;28;20050;-73
2022/03/08 06:07:03;;;;;;;0.00;0.00;;;0.80;63.60;;;;;;4088232;29;20047;-73
2022/03/08 06:09:44;;;;;;;0.00;0.00;;;0.80;63.40;;;;;;4101860;29;20462;-73
2022/03/08 06:12:07;;;;;;;0.00;0.00;;;0.80;63.60;;;;;;4101461;29;20055;-74
2022/03/08 06:14:30;;;;;;;0.00;0.00;;;0.80;63.60;;;;;;4101571;28;20047;-70
2022/03/08 06:16:54;;;;;;;0.00;0.00;;;0.80;63.70;;;;;;4088453;29;20079;-73
2022/03/08 06:19:16;;;;;;;0.00;0.00;;;0.90;64.00;;;;;;4071923;28;20052;-71
2022/03/08 06:21:38;;;;;;;0.00;0.00;;;0.90;64.10;;;;;;4088269;29;20455;-75
2022/03/08 06:24:02;;;;;;;0.00;0.00;;;1.10;64.00;;;;;;4090604;28;20052;-72
2022/03/08 06:26:24;;;;;;;0.00;0.00;;;1.30;63.90;;;;;;4090339;28;20043;-72
2022/03/08 06:28:49;;;;;;;0.00;0.00;;;1.40;63.50;;;;;;4117707;28;20153;-73
2022/03/08 06:31:16;;;;;;;0.00;0.00;;;1.60;63.30;;;;;;4080283;29;20051;-72
2022/03/08 06:33:41;;;;;;;0.00;0.00;;;1.80;63.10;;;;;;4088157;29;20059;-71
2022/03/08 06:36:03;;;;;;;0.00;0.00;;;1.90;62.80;;;;;;4088079;29;20057;-74
2022/03/08 06:38:26;;;;;;;0.00;0.00;;;2.00;62.70;;;;;;4101207;28;20051;-73
2022/03/08 06:40:50;;;;;;;0.00;0.00;;;2.10;62.70;;;;;;4074983;29;20051;-73
2022/03/08 06:43:14;;;;;;;0.00;0.00;;;2.10;62.80;;;;;;4088029;29;20493;-69
2022/03/08 06:45:36;;;;;;;0.00;0.00;;;2.10;63.00;;;;;;4087887;29;20099;-70
2022/03/08 06:47:58;;;;;;;0.00;0.00;;;2.20;63.10;;;;;;4087922;29;20047;-73
2022/03/08 06:50:20;;;;;;;0.00;0.00;;;2.30;63.00;;;;;;4089164;28;20080;-73
2022/03/08 06:52:45;;;;;;;0.00;0.00;;;2.60;62.70;;;;;;4117265;28;20156;-72
2022/03/08 06:55:07;;;;;;;0.00;0.00;;;2.80;62.30;;;;;;4103652;28;20477;-71
2022/03/08 06:57:32;;;;;;;0.00;0.00;;;2.80;62.20;;;;;;4090444;28;20059;-72
2022/03/08 06:59:59;;;;;;;0.00;0.00;;;3.00;62.00;;;;;;4103480;28;20075;-73
2022/03/08 07:02:25;;;;;;;0.00;0.00;;;3.30;61.20;;;;;;4100739;28;20194;-70
2022/03/08 07:04:47;;;;;;;0.00;0.00;;;3.50;60.30;;;;;;4074438;29;20047;-71
2022/03/08 07:07:11;;;;;;;0.00;0.00;;;3.50;59.80;;;;;;4086874;28;20114;-73
2022/03/08 07:09:36;;;;;;;0.00;0.00;;;3.30;60.80;;;;;;4119087;28;20062;-71
2022/03/08 07:12:04;;;;;;;0.00;0.00;;;3.20;60.60;;;;;;4118867;28;20053;-72
2022/03/08 07:14:28;;;;;;;0.00;0.00;;;3.20;61.00;;;;;;4089992;28;20102;-74
2022/03/08 07:16:53;;;;;;;0.00;0.00;;;3.30;60.20;;;;;;4116747;28;20061;-72
2022/03/08 07:19:18;;;;;;;0.00;0.00;;;3.60;59.90;;;;;;4103317;28;20126;-74
2022/03/08 07:21:40;;;;;;;0.00;0.00;;;4.00;58.60;;;;;;4105627;28;20109;-73
2022/03/08 07:24:08;;;;;;;0.00;0.00;;;3.70;57.30;;;;;;4105509;28;20170;-72
2022/03/08 07:26:30;;;;;;;0.00;0.00;;;3.80;57.70;;;;;;4105918;28;20047;-72
2022/03/08 07:28:54;;;;;;;0.00;0.00;;;4.20;57.00;;;;;;4119084;28;20062;-74
2022/03/08 07:31:16;;;;;;;0.00;0.00;;;4.70;56.20;;;;;;4132566;28;20061;-72
2022/03/08 07:33:39;;;;;;;0.00;0.00;;;5.00;55.40;;;;;;4105574;28;20043;-71
2022/03/08 07:36:03;;;;;;;0.00;0.00;;;5.10;54.10;;;;;;4118811;28;20129;-73
2022/03/08 07:38:26;;;;;;;0.00;0.00;;;4.50;54.80;;;;;;4105285;28;20042;-72
2022/03/08 07:40:55;;;;;;;0.00;0.00;;;4.70;55.30;;;;;;4093515;28;20071;-74
2022/03/08 07:43:18;;;;;;;0.00;0.00;;;5.20;54.80;;;;;;4118833;28;20050;-71
2022/03/08 07:45:42;;;;;;;0.00;0.00;;;5.80;54.00;;;;;;4105089;28;20561;-72
2022/03/08 07:48:07;;;;;;;0.00;0.00;;;5.90;53.00;;;;;;4118392;28;20043;-70
2022/03/08 07:50:29;;;;;;;0.00;0.00;;;6.00;52.40;;;;;;4132297;28;20362;-72
2022/03/08 07:52:52;;;;;;;0.00;0.00;;;5.70;51.90;;;;;;4132223;28;20054;-72
2022/03/08 07:55:16;;;;;;;0.00;0.00;;;5.30;53.40;;;;;;4118541;28;20047;-70
2022/03/08 07:57:38;;;;;;;0.00;0.00;;;5.10;54.20;;;;;;4118653;28;20358;-72
2022/03/08 08:00:23;;;;;;;0.00;0.00;;;5.10;54.20;;;;;;4107649;28;20070;-73
2022/03/08 08:02:47;;;;;;;0.00;0.00;;;5.80;53.40;;;;;;4105150;28;20405;-72
2022/03/08 08:05:09;;;;;;;0.00;0.00;;;6.30;51.60;;;;;;4105243;28;20057;-71
2022/03/08 08:07:31;;;;;;;0.00;0.00;;;6.30;50.80;;;;;;4132114;28;20049;-72
2022/03/08 08:09:53;;;;;;;0.00;0.00;;;6.60;50.70;;;;;;4091907;28;20398;-73
2022/03/08 08:12:18;;;;;;;0.00;0.00;;;6.40;50.60;;;;;;4104620;28;20059;-73
2022/03/08 08:14:42;;;;;;;0.00;0.00;;;6.70;50.00;;;;;;4105350;28;20050;-70
2022/03/08 08:17:04;;;;;;;0.00;0.00;;;6.90;49.30;;;;;;4131702;28;20058;-73
2022/03/08 08:19:28;;;;;;;0.00;0.00;;;7.10;49.20;;;;;;4118585;28;20780;-71
2022/03/08 08:21:50;;;;;;;0.00;0.00;;;7.20;48.40;;;;;;4105172;28;20062;-72
2022/03/08 08:24:12;;;;;;;0.00;0.00;;;7.30;47.90;;;;;;4117371;28;20476;-71
2022/03/08 08:26:34;;;;;;;0.00;0.00;;;7.00;48.80;;;;;;4132053;28;20050;-71
2022/03/08 08:28:57;;;;;;;0.00;0.00;;;7.10;48.50;;;;;;4118253;28;20046;-71
2022/03/08 08:31:19;;;;;;;0.00;0.00;;;7.50;48.00;;;;;;4118327;28;20074;-72
2022/03/08 08:33:43;;;;;;;0.00;0.00;;;7.90;47.60;;;;;;4118408;28;20090;-72
2022/03/08 08:36:05;;;;;;;0.00;0.00;;;7.70;47.10;;;;;;4101978;28;20051;-71
2022/03/08 08:38:28;;;;;;;0.00;0.00;;;7.90;47.30;;;;;;4102427;28;20438;-73
2022/03/08 08:40:52;;;;;;;0.00;0.00;;;8.20;47.60;;;;;;4105988;28;20043;-70
2022/03/08 08:43:19;;;;;;;0.00;0.00;;;8.60;47.20;;;;;;4062783;28;20045;-73
2022/03/08 08:45:51;;;;;;;0.00;0.00;;;8.90;47.30;;;;;;4101991;28;20114;-72
2022/03/08 08:48:15;;;;;;;0.00;0.00;;;9.30;46.10;;;;;;4116473;28;20122;-72
2022/03/08 08:50:37;;;;;;;0.00;0.00;;;9.30;45.50;;;;;;4118584;28;20047;-71
2022/03/08 08:53:02;;;;;;;0.00;0.00;;;9.10;45.60;;;;;;4118120;28;20055;-72
2022/03/08 08:55:25;;;;;;;0.00;0.00;;;9.50;45.80;;;;;;4105061;28;20097;-71
2022/03/08 08:57:49;;;;;;;0.00;0.00;;;9.80;44.90;;;;;;4118154;28;20061;-71
2022/03/08 09:00:12;;;;;;;0.00;0.00;;;9.90;45.00;;;;;;4131628;28;20498;-72
2022/03/08 09:02:42;;;;;;;0.00;0.00;;;9.70;44.80;;;;;;4118690;28;20050;-72
2022/03/08 09:05:05;;;;;;;0.00;0.00;;;9.90;44.40;;;;;;4105253;28;20470;-71
2022/03/08 09:07:31;;;;;;;0.00;0.00;;;9.00;45.10;;;;;;4104910;28;20070;-72
2022/03/08 09:09:58;;;;;;;0.00;0.00;;;8.70;45.90;;;;;;4118242;28;20095;-72
2022/03/08 09:12:20;;;;;;;0.00;0.00;;;8.80;45.90;;;;;;4117667;28;20054;-71
2022/03/08 09:14:43;;;;;;;0.00;0.00;;;8.60;46.80;;;;;;4117948;28;20134;-72
2022/03/08 09:17:07;;;;;;;0.00;0.00;;;8.60;47.30;;;;;;4118129;28;20121;-71
2022/03/08 09:19:33;;;;;;;0.00;0.00;;;9.40;45.90;;;;;;4117794;28;20050;-72
2022/03/08 09:21:55;;;;;;;0.00;0.00;;;9.70;45.30;;;;;;4118141;28;20618;-73
2022/03/08 09:24:20;;;;;;;0.00;0.00;;;9.80;44.90;;;;;;4076999;28;20115;-75
2022/03/08 09:26:42;;;;;;;0.00;0.00;;;8.90;45.70;;;;;;4131505;28;20380;-71
2022/03/08 09:29:04;;;;;;;0.00;0.00;;;8.70;46.30;;;;;;4118166;28;20125;-71
2022/03/08 09:31:30;;;;;;;0.00;0.00;;;8.50;47.00;;;;;;4104873;28;20070;-74
2022/03/08 09:33:54;;;;;;;0.00;0.00;;;8.80;46.90;;;;;;4117981;28;20396;-74
2022/03/08 09:36:19;;;;;;;0.00;0.00;;;9.50;45.80;;;;;;4133793;28;20054;-71
2022/03/08 09:38:41;;;;;;;0.00;0.00;;;9.70;45.40;;;;;;4094530;28;20055;-72
2022/03/08 09:41:05;;;;;;;0.00;0.00;;;9.60;45.40;;;;;;4107461;28;20475;-72
2022/03/08 09:43:29;;;;;;;0.00;0.00;;;9.90;45.20;;;;;;4107467;28;20059;-73
2022/03/08 09:45:51;;;;;;;0.00;0.00;;;10.30;44.90;;;;;;4107140;28;20071;-73
2022/03/08 09:48:16;;;;;;;0.00;0.00;;;10.10;43.90;;;;;;4105537;28;20044;-71
2022/03/08 09:50:41;;;;;;;0.00;0.00;;;9.50;45.20;;;;;;4134305;28;20058;-72
2022/03/08 09:53:05;;;;;;;0.00;0.00;;;9.30;45.10;;;;;;4107325;28;20082;-71
2022/03/08 09:55:29;;;;;;;0.00;0.00;;;9.50;45.20;;;;;;4120469;28;20449;-72
2022/03/08 09:57:59;;;;;;;0.00;0.00;;;9.00;46.20;;;;;;4106403;28;20470;-72
2022/03/08 10:00:25;;;;;;;0.00;0.00;;;8.90;46.80;;;;;;4104047;28;20386;-72
2022/03/08 10:02:51;;;;;;;0.00;0.00;;;9.10;46.40;;;;;;4104461;28;20047;-71
2022/03/08 10:05:20;;;;;;;0.00;0.00;;;9.20;46.20;;;;;;4104555;28;20090;-71
2022/03/08 10:08:19;;;;;;;0.00;0.00;;;9.50;46.10;;;;;;4104584;28;20082;-71
2022/03/08 10:11:09;;;;;;;0.00;0.00;;;9.80;45.90;;;;;;4095641;28;20082;-72
2022/03/08 10:13:50;;;;;;;0.00;0.00;;;9.80;45.30;;;;;;4120166;28;20522;-72
2022/03/08 10:16:16;;;;;;;0.00;0.00;;;9.90;45.50;;;;;;4133112;28;20086;-72
2022/03/08 10:18:40;;;;;;;0.00;0.00;;;10.10;44.70;;;;;;4120495;28;20035;-73
2022/03/08 10:21:03;;;;;;;0.00;0.00;;;9.80;45.00;;;;;;4106853;28;20047;-74
2022/03/08 10:23:25;;;;;;;0.00;0.00;;;9.90;45.50;;;;;;4107131;28;20062;-73
2022/03/08 10:25:54;;;;;;;0.00;0.00;;;10.30;45.30;;;;;;4107436;28;20078;-72
2022/03/08 10:28:16;;;;;;;0.00;0.00;;;10.70;44.90;;;;;;4119732;28;20047;-72
2022/03/08 10:30:44;;;;;;;0.00;0.00;;;10.90;44.30;;;;;;4120052;28;20054;-73
2022/03/08 10:33:19;;;;;;;0.00;0.00;;;11.30;43.50;;;;;;4093898;28;20051;-72
2022/03/08 10:35:45;;;;;;;0.00;0.00;;;11.20;43.80;;;;;;4106288;28;20061;-73
2022/03/08 10:38:13;;;;;;;0.00;0.00;;;11.50;43.60;;;;;;4093586;28;20493;-73
2022/03/08 10:40:38;;;;;;;0.00;0.00;;;12.10;43.90;;;;;;4133622;28;20453;-72
2022/03/08 10:43:03;;;;;;;0.00;0.00;;;12.50;43.10;;;;;;4125996;28;20043;-73
2022/03/08 10:45:29;;;;;;;0.00;0.00;;;12.30;41.00;;;;;;4114687;28;20082;-72
2022/03/08 10:47:54;;;;;;;0.00;0.00;;;11.20;42.30;;;;;;4105971;28;20082;-74
2022/03/08 10:50:23;;;;;;;0.00;0.00;;;11.30;43.60;;;;;;4119687;28;20077;-73
2022/03/08 10:52:50;;;;;;;0.00;0.00;;;12.30;43.00;;;;;;4106654;28;20512;-73
2022/03/08 10:55:28;;;;;;;0.00;0.00;;;12.80;41.50;;;;;;4106320;28;20102;-74
2022/03/08 10:58:06;;;;;;;0.00;0.00;;;13.30;41.60;;;;;;4106546;28;20046;-72
2022/03/08 11:00:43;;;;;;;0.00;0.00;;;14.00;40.80;;;;;;4119362;28;20097;-73
2022/03/08 11:03:16;;;;;;;0.00;0.00;;;14.20;40.30;;;;;;4106169;28;20078;-73
2022/03/08 11:05:43;;;;;;;0.00;0.00;;;14.70;39.90;;;;;;4106196;28;20057;-72
2022/03/08 11:08:06;;;;;;;0.00;0.00;;;15.60;39.20;;;;;;4132825;28;20061;-72
2022/03/08 11:10:29;;;;;;;0.00;0.00;;;16.40;38.40;;;;;;4105956;28;20055;-72
2022/03/08 11:12:52;;;;;;;0.00;0.00;;;17.00;37.40;;;;;;4119001;28;20047;-73
2022/03/08 11:15:17;;;;;;;0.00;0.00;;;17.10;36.40;;;;;;4119322;28;20066;-72
2022/03/08 11:17:45;;;;;;;0.00;0.00;;;17.20;36.30;;;;;;4106027;28;20042;-73
2022/03/08 11:20:11;;;;;;;0.00;0.00;;;17.30;35.90;;;;;;4132230;28;20138;-72
2022/03/08 11:22:34;;;;;;;0.00;0.00;;;17.60;35.70;;;;;;4119276;28;20043;-73
2022/03/08 11:24:58;;;;;;;0.00;0.00;;;17.70;35.30;;;;;;4119241;28;20529;-73
2022/03/08 11:27:23;;;;;;;0.00;0.00;;;18.00;34.90;;;;;;4119122;28;20039;-74
2022/03/08 11:29:45;;;;;;;0.00;0.00;;;17.80;34.10;;;;;;4119331;28;20170;-72
2022/03/08 11:32:14;;;;;;;0.00;0.00;;;17.10;34.30;;;;;;4105343;28;20058;-73
2022/03/08 11:34:45;;;;;;;0.00;0.00;;;17.40;35.00;;;;;;4132284;28;20046;-74
2022/03/08 11:37:23;;;;;;;0.00;0.00;;;18.40;33.90;;;;;;4105619;28;20125;-74
2022/03/08 11:40:07;;;;;;;0.00;0.00;;;17.90;33.00;;;;;;4092967;28;20142;-71
2022/03/08 11:42:34;;;;;;;0.00;0.00;;;16.80;34.40;;;;;;4105512;28;20073;-73
2022/03/08 11:45:02;;;;;;;0.00;0.00;;;16.90;34.20;;;;;;4118906;28;20362;-74
2022/03/08 11:47:39;;;;;;;0.00;0.00;;;15.20;35.30;;;;;;4119218;28;20120;-73
2022/03/08 11:50:02;;;;;;;0.00;0.00;;;15.90;36.10;;;;;;4092457;28;20047;-73
2022/03/08 11:52:30;;;;;;;0.00;0.00;;;16.20;35.80;;;;;;4105403;28;20106;-72
2022/03/08 11:55:06;;;;;;;0.00;0.00;;;17.30;35.30;;;;;;4105091;28;20062;-74
2022/03/08 11:57:47;;;;;;;0.00;0.00;;;18.20;33.50;;;;;;4118645;28;20524;-72
2022/03/08 12:00:19;;;;;;;0.00;0.00;;;18.40;32.70;;;;;;4131805;28;20062;-74
2022/03/08 12:02:45;;;;;;;0.00;0.00;;;18.70;32.10;;;;;;4113675;28;20078;-73
2022/03/08 12:07:52;;;;;;;0.00;0.00;;;17.70;32.90;;;;;;4116038;28;20046;-73
2022/03/08 12:10:26;;;;;;;0.00;0.00;;;17.40;33.40;;;;;;4105152;28;20053;-73
2022/03/08 12:13:12;;;;;;;0.00;0.00;;;17.80;33.10;;;;;;4132321;28;20200;-72
2022/03/08 12:16:12;;;;;;;0.00;0.00;;;17.80;32.30;;;;;;4118620;28;20476;-73
2022/03/08 12:18:51;;;;;;;0.00;0.00;;;17.60;33.30;;;;;;4129214;28;20094;-72
2022/03/08 12:21:16;;;;;;;0.00;0.00;;;17.90;32.90;;;;;;4102755;28;20043;-72
2022/03/08 12:24:03;;;;;;;0.00;0.00;;;17.20;33.90;;;;;;4102440;28;20095;-74
2022/03/08 12:26:31;;;;;;;0.00;0.00;;;17.70;33.40;;;;;;4117955;28;20051;-73
2022/03/08 12:29:21;;;;;;;0.00;0.00;;;17.30;33.60;;;;;;4118500;28;20042;-74
2022/03/08 12:31:56;;;;;;;0.00;0.00;;;17.40;33.90;;;;;;4118452;28;20043;-73
2022/03/08 12:34:38;;;;;;;0.00;0.00;;;18.40;33.20;;;;;;4117936;28;20047;-72
2022/03/08 12:37:29;;;;;;;0.00;0.00;;;18.60;32.90;;;;;;4121059;28;20574;-74
2022/03/08 12:40:20;;;;;;;0.00;0.00;;;18.90;31.90;;;;;;4118174;28;20146;-71
2022/03/08 12:42:49;;;;;;;0.00;0.00;;;18.50;32.60;;;;;;4120524;28;20042;-73
2022/03/08 12:45:12;;;;;;;0.00;0.00;;;18.70;32.50;;;;;;4105170;28;20054;-73
2022/03/08 12:47:38;;;;;;;0.00;0.00;;;18.80;31.90;;;;;;4133630;28;20055;-74
2022/03/08 12:50:16;;;;;;;0.00;0.00;;;18.90;32.40;;;;;;4115964;28;20047;-73
2022/03/08 12:52:46;;;;;;;0.00;0.00;;;19.10;32.00;;;;;;4115503;28;20109;-72